Saturday, August 29, 2015, 7:27 PM EDT

KPOU, Poughkeepsie Dutchess Cty

Location: Wappingers Falls, NY, United States Lat: 41.633
Local Time: 7:27 PM EDT (23:27 GMT) Lon: -73.883
Time Zone: US/Eastern Elev: 167 ft

Show me the last for .
Show Decoded

2015-08-29 18:53 METAR KPOU 292253Z AUTO 00000KT 10SM CLR 27/15 A3007 RMK AO2 SLP179 T02720150 =
2015-08-29 17:53 METAR KPOU 292153Z AUTO 24006KT 10SM FEW060 28/14 A3008 RMK AO2 SLP182 T02830139
                 =
2015-08-29 16:53 METAR KPOU 292053Z AUTO 24006KT 10SM CLR 29/13 A3009 RMK AO2 SLP187 T02890133
                 56021 =
2015-08-29 15:53 METAR KPOU 291953Z AUTO 19004KT 10SM FEW060 28/13 A3010 RMK AO2 SLP190 T02830133
                 =
2015-08-29 14:53 METAR KPOU 291853Z 35004KT 10SM FEW060 29/13 A3012 RMK AO2 SLP196 T02890133 =
2015-08-29 13:53 METAR KPOU 291753Z VRB04KT 10SM SCT055 28/13 A3016 RMK AO2 SLP208 T02780128
                 10278 20144 58017 =
2015-08-29 12:53 METAR KPOU 291653Z 22007KT 180V260 10SM FEW030 27/13 A3017 RMK AO2 SLP213
                 T02720133 =
2015-08-29 11:53 METAR KPOU 291553Z VRB03KT 10SM CLR 26/13 A3020 RMK AO2 SLP222 T02560133 =
2015-08-29 10:53 METAR KPOU 291453Z 24007KT 10SM CLR 24/11 A3021 RMK AO2 SLP225 T02390111 56006 =
2015-08-29 09:53 METAR KPOU 291353Z 00000KT 10SM CLR 21/13 A3021 RMK AO2 SLP227 T02110133 =
2015-08-29 08:53 METAR KPOU 291253Z 00000KT 10SM CLR 18/13 A3022 RMK AO2 SLP228 T01780133 =
2015-08-29 07:53 METAR KPOU 291153Z 00000KT 10SM CLR 14/13 A3023 RMK AO2 SLP232 T01440128 10144
                 20111 53013 =
2015-08-29 06:53 METAR KPOU 291053Z 00000KT 10SM CLR 12/11 A3021 RMK AO2 SLP227 T01170106 =
2015-08-29 05:53 METAR KPOU 290953Z AUTO 00000KT 10SM CLR 12/11 A3020 RMK AO2 SLP221 T01220106 =
2015-08-29 04:53 METAR KPOU 290853Z AUTO 00000KT 10SM CLR 13/11 A3019 RMK AO2 SLP219 T01280111
                 50000 =
2015-08-29 03:53 METAR KPOU 290753Z AUTO 00000KT 10SM CLR 13/12 A3019 RMK AO2 SLP219 T01330117 =
2015-08-29 02:53 METAR KPOU 290653Z AUTO 00000KT 10SM CLR 13/12 A3019 RMK AO2 SLP219 T01330117 =
2015-08-29 01:53 METAR KPOU 290553Z AUTO 00000KT 10SM CLR 14/13 A3019 RMK AO2 SLP218 T01440128
                 10211 20139 58002 =
2015-08-29 00:53 METAR KPOU 290453Z AUTO 00000KT 10SM CLR 16/13 A3019 RMK AO2 SLP219 T01560133
                 402610111 =
2015-08-28 23:53 METAR KPOU 290353Z AUTO 00000KT 10SM SCT055 17/14 A3019 =
2015-08-28 22:53 METAR KPOU 290253Z AUTO 00000KT 10SM CLR 17/14 A3019 RMK AO2 SLP221 T01670139
                 51017 =
2015-08-28 21:53 METAR KPOU 290153Z AUTO 00000KT 10SM SCT060 18/14 A3018 =
2015-08-28 20:53 METAR KPOU 290053Z 00000KT 10SM BKN060 19/14 A3016 RMK AO2 SLP210 T01940139 =
2015-08-28 19:53 METAR KPOU 282353Z 00000KT 10SM OVC060 21/14 A3014 RMK AO2 SLP203 T02060139
                 10261 20206 53004 =

Support USWX by starting your Amazon purchase here.